createdAt,value
2018-12-18T00:00:03.849Z,15.10
2018-12-18T00:02:35.782Z,15.13
2018-12-18T00:05:26.620Z,19.60
2018-12-18T00:07:59.427Z,15.60
2018-12-18T00:10:52.091Z,14.93
2018-12-18T00:13:25.195Z,15.53
2018-12-18T00:16:10.024Z,15.53
2018-12-18T00:18:41.662Z,12.63
2018-12-18T00:21:26.519Z,14.00
2018-12-18T00:23:58.246Z,14.97
2018-12-18T00:26:48.841Z,16.43
2018-12-18T00:29:20.360Z,14.00
2018-12-18T00:58:58.891Z,12.33
2018-12-18T01:01:30.630Z,13.83
2018-12-18T01:44:21.904Z,11.57
2018-12-18T01:46:53.473Z,11.93
2018-12-18T02:02:44.461Z,11.00
2018-12-18T02:05:16.051Z,11.70
2018-12-18T02:07:57.126Z,11.03
2018-12-18T02:10:28.766Z,12.10
2018-12-18T02:39:58.752Z,12.37
2018-12-18T02:42:30.614Z,12.10
2018-12-18T02:45:24.406Z,12.20
2018-12-18T02:47:55.990Z,13.03
2018-12-18T02:50:40.854Z,11.03
2018-12-18T02:53:12.360Z,12.33
2018-12-18T03:09:10.906Z,12.70
2018-12-18T03:11:47.103Z,12.40
2018-12-18T03:14:28.194Z,11.17
2018-12-18T03:16:59.915Z,12.97
2018-12-18T03:19:44.750Z,13.17
2018-12-18T03:22:16.590Z,14.77
2018-12-18T03:25:01.511Z,12.87
2018-12-18T03:27:33.203Z,15.73
2018-12-18T03:30:14.961Z,13.63
2018-12-18T03:32:50.775Z,13.40
2018-12-18T03:35:35.538Z,12.97
2018-12-18T03:38:07.501Z,14.30
2018-12-18T03:53:55.936Z,11.90
2018-12-18T03:56:27.493Z,11.93
2018-12-18T04:12:20.948Z,11.10
2018-12-18T04:14:53.878Z,10.93
2018-12-18T04:17:51.311Z,11.30
2018-12-18T04:20:22.775Z,11.73
2018-12-18T04:23:04.031Z,11.37
2018-12-18T04:25:35.616Z,11.70
2018-12-18T04:28:23.317Z,11.27
2018-12-18T04:30:54.689Z,11.83
2018-12-18T04:33:39.202Z,11.63
2018-12-18T04:36:10.811Z,12.27
2018-12-18T04:51:55.251Z,12.40
2018-12-18T04:54:26.885Z,11.40
2018-12-18T04:56:58.352Z,11.23
2018-12-18T04:59:43.231Z,12.93
2018-12-18T05:02:14.684Z,11.53
2018-12-18T05:18:03.057Z,13.00
2018-12-18T05:20:34.533Z,12.10
2018-12-18T05:23:19.217Z,12.07
2018-12-18T05:25:50.815Z,14.30
2018-12-18T05:28:38.430Z,13.03
2018-12-18T05:31:10.055Z,12.93
2018-12-18T05:33:51.748Z,12.60
2018-12-18T05:36:23.360Z,13.27
2018-12-18T05:39:09.020Z,12.73
2018-12-18T05:41:40.673Z,12.33
2018-12-18T05:44:23.906Z,12.83
2018-12-18T05:46:55.857Z,13.30
2018-12-18T05:49:56.275Z,12.30
2018-12-18T05:52:28.097Z,13.57
2018-12-18T05:55:18.746Z,13.43
2018-12-18T05:57:51.057Z,13.50
2018-12-18T06:00:35.865Z,13.17
2018-12-18T06:03:07.482Z,14.87
2018-12-18T06:05:52.339Z,12.93
2018-12-18T06:08:27.071Z,12.40
2018-12-18T06:11:11.739Z,12.90
2018-12-18T06:13:43.603Z,12.90
2018-12-18T06:16:28.210Z,12.53
2018-12-18T06:18:59.853Z,13.63
2018-12-18T06:21:41.016Z,12.83
2018-12-18T06:24:12.815Z,13.07
2018-12-18T06:27:10.130Z,13.00
2018-12-18T06:29:41.713Z,12.40
2018-12-18T06:32:26.420Z,14.37
2018-12-18T06:34:58.416Z,14.57
2018-12-18T06:37:43.072Z,12.70
2018-12-18T06:40:14.955Z,14.47
2018-12-18T06:42:56.419Z,13.07
2018-12-18T06:45:28.195Z,13.40
2018-12-18T06:48:09.667Z,13.67
2018-12-18T06:50:41.311Z,13.63
2018-12-18T06:53:32.150Z,14.10
2018-12-18T06:56:04.269Z,14.67
2018-12-18T06:58:51.954Z,13.90
2018-12-18T07:01:23.512Z,14.70
2018-12-18T07:04:10.322Z,12.83
2018-12-18T07:06:42.065Z,13.10
2018-12-18T07:09:24.112Z,12.83
2018-12-18T07:11:55.907Z,14.97
2018-12-18T07:14:37.001Z,13.70
2018-12-18T07:17:08.851Z,14.83
2018-12-18T07:19:50.713Z,14.30
2018-12-18T07:22:22.467Z,14.83
2018-12-18T07:25:08.340Z,14.33
2018-12-18T07:27:40.079Z,13.83
2018-12-18T07:30:21.487Z,14.60
2018-12-18T07:32:53.187Z,13.97
2018-12-18T07:35:37.949Z,13.10
2018-12-18T07:38:09.600Z,14.40
2018-12-18T07:41:00.357Z,12.63
2018-12-18T07:43:31.931Z,12.63
2018-12-18T07:46:13.314Z,13.17
2018-12-18T07:48:45.190Z,12.37
2018-12-18T07:51:29.880Z,13.10
2018-12-18T07:54:01.546Z,14.27
2018-12-18T07:56:46.598Z,12.97
2018-12-18T07:59:18.294Z,13.93
2018-12-18T08:02:03.233Z,13.00
2018-12-18T08:04:35.076Z,13.63
2018-12-18T08:07:19.767Z,14.00
2018-12-18T08:09:51.598Z,12.70
2018-12-18T08:12:49.074Z,12.73
2018-12-18T08:15:20.792Z,12.97
2018-12-18T08:31:09.863Z,12.60
2018-12-18T08:33:41.844Z,13.13
2018-12-18T08:36:27.085Z,12.30
2018-12-18T08:38:59.390Z,13.10
2018-12-18T08:41:41.062Z,11.97
2018-12-18T08:44:13.356Z,12.73
2018-12-18T08:46:58.549Z,11.83
2018-12-18T08:49:32.249Z,11.37
2018-12-18T08:52:14.035Z,12.33
2018-12-18T08:54:47.339Z,12.43
2018-12-18T08:57:48.164Z,11.93
2018-12-18T09:00:20.856Z,12.13
2018-12-18T09:03:06.992Z,11.57
2018-12-18T09:05:43.094Z,12.03
2018-12-18T09:08:23.577Z,10.63
2018-12-18T09:10:56.327Z,9.30
2018-12-18T09:13:50.850Z,10.90
2018-12-18T09:16:30.518Z,11.93
2018-12-18T09:19:21.840Z,10.43
2018-12-18T09:21:54.374Z,10.47
2018-12-18T09:50:44.017Z,10.37
2018-12-18T09:53:16.505Z,10.07
2018-12-18T09:55:58.486Z,10.50
2018-12-18T09:58:31.175Z,9.70
2018-12-18T10:01:25.764Z,10.43
2018-12-18T10:03:58.234Z,8.70
2018-12-18T10:06:43.211Z,10.03
2018-12-18T10:09:15.263Z,9.73
2018-12-18T10:12:00.698Z,9.90
2018-12-18T10:14:32.343Z,9.47
2018-12-18T10:17:17.598Z,10.33
2018-12-18T10:19:49.510Z,8.73
2018-12-18T10:35:36.791Z,8.90
2018-12-18T10:38:09.201Z,9.87
2018-12-18T10:40:54.993Z,9.27
2018-12-18T10:43:27.221Z,9.57
2018-12-18T10:46:09.301Z,8.73
2018-12-18T10:48:41.003Z,8.90
2018-12-18T10:51:22.502Z,9.67
2018-12-18T10:53:56.089Z,9.83
2018-12-18T11:09:44.701Z,9.70
2018-12-18T11:12:21.739Z,9.83
2018-12-18T11:15:10.194Z,9.77
2018-12-18T11:17:42.912Z,9.83
2018-12-18T11:20:28.863Z,10.60
2018-12-18T11:23:02.140Z,10.13
2018-12-18T11:25:51.000Z,10.40
2018-12-18T11:28:24.014Z,10.40
2018-12-18T11:31:06.111Z,9.90
2018-12-18T11:33:38.477Z,10.63
2018-12-18T11:36:20.866Z,10.87
2018-12-18T11:38:53.947Z,9.87
2018-12-18T11:41:35.998Z,9.67
2018-12-18T11:44:07.768Z,10.13
2018-12-18T11:46:53.946Z,10.17
2018-12-18T11:49:25.745Z,10.03
2018-12-18T11:52:07.709Z,10.27
2018-12-18T11:54:42.526Z,10.00
2018-12-18T11:57:25.396Z,9.47
2018-12-18T11:59:59.342Z,9.17
2018-12-18T12:02:46.302Z,9.30
2018-12-18T12:05:20.301Z,9.40
2018-12-18T12:08:03.017Z,8.90
2018-12-18T12:10:35.619Z,9.30
2018-12-18T12:13:08.807Z,8.37
2018-12-18T12:15:50.837Z,8.70
2018-12-18T12:18:23.072Z,9.17
2018-12-18T12:21:05.295Z,9.10
2018-12-18T12:23:37.271Z,8.80
2018-12-18T12:26:28.586Z,9.23
2018-12-18T12:29:00.682Z,9.00
2018-12-18T12:31:46.594Z,9.40
2018-12-18T12:34:19.347Z,8.53
2018-12-18T12:36:51.522Z,9.53
2018-12-18T12:39:33.709Z,9.10
2018-12-18T12:42:05.952Z,8.63
2018-12-18T12:44:51.456Z,9.77
2018-12-18T12:47:23.788Z,9.10
2018-12-18T12:49:55.645Z,9.90
2018-12-18T12:52:41.052Z,9.43
2018-12-18T12:55:13.293Z,9.60
2018-12-18T12:58:02.821Z,8.93
2018-12-18T13:00:34.967Z,9.47
2018-12-18T13:03:23.400Z,9.60
2018-12-18T13:05:55.807Z,9.50
2018-12-18T13:08:40.770Z,8.90
2018-12-18T13:11:13.344Z,9.33
2018-12-18T13:13:58.726Z,9.50
2018-12-18T13:16:30.767Z,9.23
2018-12-18T13:32:16.607Z,9.20
2018-12-18T13:34:48.474Z,9.27
2018-12-18T13:37:33.645Z,8.60
2018-12-18T13:40:05.810Z,8.90
2018-12-18T13:42:47.507Z,9.60
2018-12-18T13:45:19.563Z,9.20
2018-12-18T13:48:01.066Z,9.70
2018-12-18T13:50:33.125Z,9.50
2018-12-18T13:53:18.398Z,9.90
2018-12-18T13:55:50.373Z,10.03
2018-12-18T13:58:35.492Z,9.33
2018-12-18T14:01:07.260Z,9.83
2018-12-18T14:03:52.355Z,8.97
2018-12-18T14:06:24.439Z,10.03
2018-12-18T14:09:12.643Z,10.90
2018-12-18T14:11:44.705Z,9.80
2018-12-18T14:14:16.885Z,9.73
2018-12-18T14:17:02.158Z,10.03
2018-12-18T14:19:33.774Z,9.73
2018-12-18T14:22:15.301Z,10.43
2018-12-18T14:24:47.094Z,10.47
2018-12-18T14:27:38.203Z,10.93
2018-12-18T14:30:10.566Z,10.73
2018-12-18T14:33:01.838Z,11.13
2018-12-18T14:35:33.916Z,11.40
2018-12-18T14:38:16.215Z,11.23
2018-12-18T14:40:48.063Z,10.83
2018-12-18T14:43:30.188Z,10.27
2018-12-18T14:46:02.094Z,11.00
2018-12-18T14:48:47.415Z,11.77
2018-12-18T14:51:19.377Z,10.93
2018-12-18T14:54:00.743Z,10.40
2018-12-18T14:56:32.735Z,10.57
2018-12-18T14:59:30.178Z,10.17
2018-12-18T15:02:02.000Z,10.27
2018-12-18T15:04:44.672Z,12.93
2018-12-18T15:07:16.413Z,12.27
2018-12-18T15:23:07.294Z,14.03
2018-12-18T15:25:39.121Z,17.47
2018-12-18T15:28:27.272Z,13.23
2018-12-18T15:30:59.314Z,12.73
2018-12-18T15:33:41.346Z,11.43
2018-12-18T15:36:13.457Z,12.20
2018-12-18T15:52:17.750Z,10.80
2018-12-18T15:54:49.991Z,11.57
2018-12-18T16:10:36.264Z,13.47
2018-12-18T16:13:09.044Z,13.47
2018-12-18T16:15:50.978Z,14.60
2018-12-18T16:18:22.713Z,13.17
2018-12-18T16:21:04.445Z,14.57
2018-12-18T16:23:37.038Z,12.80
2018-12-18T16:26:18.874Z,13.27
2018-12-18T16:28:50.814Z,12.23
2018-12-18T16:31:36.159Z,12.67
2018-12-18T16:34:08.189Z,12.47
2018-12-18T16:36:50.289Z,12.77
2018-12-18T16:39:22.853Z,12.57
2018-12-18T16:42:08.498Z,12.00
2018-12-18T16:44:40.837Z,11.90
2018-12-18T16:47:26.619Z,13.30
2018-12-18T16:49:59.611Z,13.27
2018-12-18T16:52:41.257Z,12.40
2018-12-18T16:55:13.610Z,15.20
2018-12-18T16:57:56.349Z,15.63
2018-12-18T17:00:29.111Z,13.07
2018-12-18T17:03:14.825Z,13.53
2018-12-18T17:05:47.212Z,12.97
2018-12-18T17:08:29.171Z,12.77
2018-12-18T17:11:01.169Z,11.73
2018-12-18T17:13:42.543Z,14.27
2018-12-18T17:16:14.827Z,13.23
2018-12-18T17:19:09.303Z,13.97
2018-12-18T17:21:41.542Z,13.17
2018-12-18T17:24:24.019Z,15.03
2018-12-18T17:26:56.237Z,13.00
2018-12-18T17:43:10.431Z,13.60
2018-12-18T17:45:42.733Z,13.00
2018-12-18T17:48:24.589Z,12.37
2018-12-18T17:50:56.722Z,13.50
2018-12-18T17:53:49.014Z,12.37
2018-12-18T17:56:21.106Z,12.23
2018-12-18T17:59:03.398Z,12.67
2018-12-18T18:01:36.029Z,13.17
2018-12-18T18:04:20.806Z,12.17
2018-12-18T18:06:54.350Z,13.53
2018-12-18T18:09:37.599Z,12.10
2018-12-18T18:12:09.810Z,12.73
2018-12-18T18:27:55.052Z,13.37
2018-12-18T18:30:27.056Z,13.77
2018-12-18T18:33:08.861Z,13.30
2018-12-18T18:35:40.481Z,12.70
2018-12-18T18:38:25.133Z,12.53
2018-12-18T18:40:56.807Z,14.30
2018-12-18T18:43:46.852Z,15.90
2018-12-18T18:46:18.332Z,13.33
2018-12-18T18:49:03.125Z,20.13
2018-12-18T18:51:34.715Z,15.27
2018-12-18T18:54:15.821Z,13.60
2018-12-18T18:56:47.331Z,12.77
2018-12-18T18:59:28.522Z,13.13
2018-12-18T19:02:00.123Z,12.53
2018-12-18T19:04:44.710Z,13.40
2018-12-18T19:07:22.966Z,13.17
2018-12-18T19:10:16.633Z,12.77
2018-12-18T19:12:50.128Z,13.90
2018-12-18T19:15:43.856Z,14.00
2018-12-18T19:18:15.256Z,19.30
2018-12-18T19:20:56.871Z,18.40
2018-12-18T19:23:28.377Z,15.33
2018-12-18T19:26:22.804Z,15.27
2018-12-18T19:28:55.058Z,16.07
2018-12-18T19:31:40.470Z,16.90
2018-12-18T19:34:23.753Z,22.03
2018-12-18T19:40:43.633Z,23.57
2018-12-18T19:46:55.309Z,13.43
2018-12-18T19:49:50.394Z,13.60
2018-12-18T19:52:44.692Z,12.97
2018-12-18T19:55:32.040Z,14.50
2018-12-18T19:58:48.664Z,13.63
2018-12-18T20:05:08.101Z,19.60
2018-12-18T20:07:58.023Z,17.20
2018-12-18T20:17:31.237Z,20.70
2018-12-18T20:20:28.009Z,17.37
2018-12-18T20:23:41.055Z,14.37
2018-12-18T20:26:42.314Z,13.90
2018-12-18T20:29:29.194Z,13.20
2018-12-18T20:32:39.188Z,14.13
2018-12-18T20:51:44.251Z,24.87
2018-12-18T20:54:39.428Z,17.00
2018-12-18T20:58:03.917Z,13.37
2018-12-18T21:00:47.391Z,12.80
2018-12-18T21:03:49.016Z,13.67
2018-12-18T21:06:28.025Z,12.73
2018-12-18T21:09:23.220Z,13.33
2018-12-18T21:15:17.251Z,12.87
2018-12-18T21:19:34.886Z,13.13
2018-12-18T21:25:37.977Z,13.20
2018-12-18T21:28:21.547Z,13.57
2018-12-18T21:36:02.775Z,12.73
2018-12-18T21:38:43.792Z,13.13
2018-12-18T21:45:03.654Z,13.53
2018-12-18T21:58:17.979Z,12.43
2018-12-18T22:01:32.002Z,14.50
2018-12-18T22:04:16.367Z,14.37
2018-12-18T22:07:03.736Z,16.70
2018-12-18T22:09:50.589Z,14.63
2018-12-18T22:12:43.670Z,13.87
2018-12-18T22:15:18.051Z,14.87
2018-12-18T22:17:59.974Z,14.70
2018-12-18T22:20:32.238Z,14.63
2018-12-18T22:23:13.665Z,13.80
2018-12-18T22:25:46.399Z,13.83
2018-12-18T22:28:27.802Z,14.63
2018-12-18T22:30:59.752Z,15.40
2018-12-18T22:33:41.480Z,14.37
2018-12-18T22:36:13.342Z,14.23
2018-12-18T22:38:58.643Z,15.80
2018-12-18T22:41:30.814Z,14.70
2018-12-18T22:44:16.816Z,13.87
2018-12-18T22:46:49.530Z,14.87
2018-12-18T22:49:30.970Z,15.17
2018-12-18T22:52:02.783Z,14.07
2018-12-18T22:54:47.633Z,14.47
2018-12-18T22:57:19.676Z,14.97
2018-12-18T23:00:01.360Z,15.47
2018-12-18T23:02:36.376Z,15.53
2018-12-18T23:05:18.020Z,14.17
2018-12-18T23:07:50.077Z,14.90
2018-12-18T23:10:35.000Z,19.62
2018-12-18T23:13:07.038Z,15.57
2018-12-18T23:15:53.842Z,15.23
2018-12-18T23:18:28.099Z,15.07
2018-12-18T23:21:09.404Z,13.67
2018-12-18T23:23:56.531Z,14.03
2018-12-18T23:26:42.904Z,14.30
2018-12-18T23:29:14.776Z,14.67
2018-12-18T23:31:56.255Z,14.13
2018-12-18T23:34:33.035Z,14.30
2018-12-18T23:37:14.851Z,14.40
2018-12-18T23:39:46.674Z,14.50
2018-12-18T23:42:28.472Z,14.17
2018-12-18T23:45:00.031Z,13.97
2018-12-18T23:47:41.688Z,14.47
2018-12-18T23:50:13.776Z,13.57
2018-12-18T23:53:02.143Z,14.90
2018-12-18T23:55:34.345Z,13.77
2018-12-18T23:58:16.111Z,13.40
